sensor_id;sensor_type;location;lat;lon;timestamp;pressure;altitude;pressure_sealevel;temperature;humidity
64886;BME280;51514;52.206;5.114;2024-02-28T00:01:24;102094.81;;;5.81;78.46
64886;BME280;51514;52.206;5.114;2024-02-28T00:03:49;102090.69;;;5.75;78.60
64886;BME280;51514;52.206;5.114;2024-02-28T00:06:18;102085.75;;;5.69;78.95
64886;BME280;51514;52.206;5.114;2024-02-28T00:08:44;102083.44;;;5.63;78.70
64886;BME280;51514;52.206;5.114;2024-02-28T00:11:09;102080.09;;;5.60;78.75
64886;BME280;51514;52.206;5.114;2024-02-28T00:13:35;102073.41;;;5.53;78.92
64886;BME280;51514;52.206;5.114;2024-02-28T00:16:01;102080.78;;;5.49;78.42
64886;BME280;51514;52.206;5.114;2024-02-28T00:18:26;102080.09;;;5.45;78.76
64886;BME280;51514;52.206;5.114;2024-02-28T00:20:51;102082.97;;;5.42;78.68
64886;BME280;51514;52.206;5.114;2024-02-28T00:23:17;102080.59;;;5.38;78.57
64886;BME280;51514;52.206;5.114;2024-02-28T00:25:42;102079.22;;;5.31;78.70
64886;BME280;51514;52.206;5.114;2024-02-28T00:28:08;102087.56;;;5.26;78.78
64886;BME280;51514;52.206;5.114;2024-02-28T00:30:33;102088.91;;;5.19;78.87
64886;BME280;51514;52.206;5.114;2024-02-28T00:32:59;102090.03;;;5.15;78.44
64886;BME280;51514;52.206;5.114;2024-02-28T00:35:25;102085.81;;;5.11;78.85
64886;BME280;51514;52.206;5.114;2024-02-28T00:37:50;102082.56;;;5.06;78.66
64886;BME280;51514;52.206;5.114;2024-02-28T00:40:16;102082.84;;;5.01;78.68
64886;BME280;51514;52.206;5.114;2024-02-28T00:42:41;102087.50;;;4.98;79.01
64886;BME280;51514;52.206;5.114;2024-02-28T00:45:09;102077.00;;;4.95;79.07
64886;BME280;51514;52.206;5.114;2024-02-28T00:47:35;102079.94;;;4.90;79.21
64886;BME280;51514;52.206;5.114;2024-02-28T00:50:00;102074.22;;;4.82;79.49
64886;BME280;51514;52.206;5.114;2024-02-28T00:52:28;102077.44;;;4.73;79.14
64886;BME280;51514;52.206;5.114;2024-02-28T00:54:53;102077.69;;;4.68;78.88
64886;BME280;51514;52.206;5.114;2024-02-28T00:57:19;102083.22;;;4.65;79.59
64886;BME280;51514;52.206;5.114;2024-02-28T00:59:44;102082.47;;;4.63;79.00
64886;BME280;51514;52.206;5.114;2024-02-28T01:02:09;102079.09;;;4.60;79.06
64886;BME280;51514;52.206;5.114;2024-02-28T01:04:35;102074.88;;;4.56;78.98
64886;BME280;51514;52.206;5.114;2024-02-28T01:07:00;102073.34;;;4.52;78.78
64886;BME280;51514;52.206;5.114;2024-02-28T01:09:26;102073.63;;;4.47;78.96
64886;BME280;51514;52.206;5.114;2024-02-28T01:11:51;102081.13;;;4.40;78.89
64886;BME280;51514;52.206;5.114;2024-02-28T01:14:16;102082.25;;;4.36;79.64
64886;BME280;51514;52.206;5.114;2024-02-28T01:16:41;102084.22;;;4.33;79.36
64886;BME280;51514;52.206;5.114;2024-02-28T01:19:07;102089.84;;;4.28;79.73
64886;BME280;51514;52.206;5.114;2024-02-28T01:21:32;102084.50;;;4.28;79.89
64886;BME280;51514;52.206;5.114;2024-02-28T01:23:58;102082.88;;;4.26;79.60
64886;BME280;51514;52.206;5.114;2024-02-28T01:26:23;102083.72;;;4.26;79.94
64886;BME280;51514;52.206;5.114;2024-02-28T01:28:49;102082.00;;;4.25;80.27
64886;BME280;51514;52.206;5.114;2024-02-28T01:31:15;102082.00;;;4.25;80.45
64886;BME280;51514;52.206;5.114;2024-02-28T01:33:41;102082.09;;;4.24;80.23
64886;BME280;51514;52.206;5.114;2024-02-28T01:36:06;102076.81;;;4.22;80.51
64886;BME280;51514;52.206;5.114;2024-02-28T01:38:32;102072.56;;;4.20;80.48
64886;BME280;51514;52.206;5.114;2024-02-28T01:40:57;102071.00;;;4.16;80.62
64886;BME280;51514;52.206;5.114;2024-02-28T01:43:23;102077.34;;;4.13;80.57
64886;BME280;51514;52.206;5.114;2024-02-28T01:45:48;102071.34;;;4.10;80.18
64886;BME280;51514;52.206;5.114;2024-02-28T01:48:13;102073.91;;;4.11;80.83
64886;BME280;51514;52.206;5.114;2024-02-28T01:50:39;102077.34;;;4.13;80.58
64886;BME280;51514;52.206;5.114;2024-02-28T01:53:06;102062.03;;;4.17;80.96
64886;BME280;51514;52.206;5.114;2024-02-28T01:55:37;102063.69;;;4.19;81.15
64886;BME280;51514;52.206;5.114;2024-02-28T01:58:03;102063.41;;;4.24;81.29
64886;BME280;51514;52.206;5.114;2024-02-28T02:00:32;102061.50;;;4.26;81.25
64886;BME280;51514;52.206;5.114;2024-02-28T02:02:59;102075.47;;;4.31;81.25
64886;BME280;51514;52.206;5.114;2024-02-28T02:05:24;102063.84;;;4.32;81.02
64886;BME280;51514;52.206;5.114;2024-02-28T02:07:50;102069.06;;;4.33;81.89
64886;BME280;51514;52.206;5.114;2024-02-28T02:10:16;102068.19;;;4.33;81.90
64886;BME280;51514;52.206;5.114;2024-02-28T02:12:41;102066.31;;;4.35;81.94
64886;BME280;51514;52.206;5.114;2024-02-28T02:15:07;102067.00;;;4.38;81.78
64886;BME280;51514;52.206;5.114;2024-02-28T02:17:32;102069.41;;;4.43;81.99
64886;BME280;51514;52.206;5.114;2024-02-28T02:19:58;102066.38;;;4.49;81.93
64886;BME280;51514;52.206;5.114;2024-02-28T02:22:26;102064.47;;;4.51;82.07
64886;BME280;51514;52.206;5.114;2024-02-28T02:24:52;102066.78;;;4.57;82.25
64886;BME280;51514;52.206;5.114;2024-02-28T02:27:17;102063.84;;;4.62;82.44
64886;BME280;51514;52.206;5.114;2024-02-28T02:29:43;102075.19;;;4.65;82.05
64886;BME280;51514;52.206;5.114;2024-02-28T02:32:08;102071.41;;;4.69;82.54
64886;BME280;51514;52.206;5.114;2024-02-28T02:34:34;102067.69;;;4.72;82.42
64886;BME280;51514;52.206;5.114;2024-02-28T02:36:59;102072.75;;;4.76;82.56
64886;BME280;51514;52.206;5.114;2024-02-28T02:39:24;102063.59;;;4.81;82.42
64886;BME280;51514;52.206;5.114;2024-02-28T02:41:50;102069.56;;;4.86;82.87
64886;BME280;51514;52.206;5.114;2024-02-28T02:44:15;102070.03;;;4.92;82.71
64886;BME280;51514;52.206;5.114;2024-02-28T02:46:41;102060.03;;;4.96;82.93
64886;BME280;51514;52.206;5.114;2024-02-28T02:49:06;102063.25;;;5.01;83.00
64886;BME280;51514;52.206;5.114;2024-02-28T02:51:32;102057.91;;;5.01;83.59
64886;BME280;51514;52.206;5.114;2024-02-28T02:53:57;102063.09;;;5.04;83.99
64886;BME280;51514;52.206;5.114;2024-02-28T02:56:22;102060.22;;;5.07;83.73
64886;BME280;51514;52.206;5.114;2024-02-28T02:58:48;102060.78;;;5.12;84.24
64886;BME280;51514;52.206;5.114;2024-02-28T03:01:13;102048.78;;;5.19;84.05
64886;BME280;51514;52.206;5.114;2024-02-28T03:03:38;102055.47;;;5.26;84.05
64886;BME280;51514;52.206;5.114;2024-02-28T03:06:04;102052.41;;;5.32;83.78
64886;BME280;51514;52.206;5.114;2024-02-28T03:08:35;102045.06;;;5.36;84.21
64886;BME280;51514;52.206;5.114;2024-02-28T03:11:00;102051.06;;;5.39;83.89
64886;BME280;51514;52.206;5.114;2024-02-28T03:13:25;102052.69;;;5.42;84.11
64886;BME280;51514;52.206;5.114;2024-02-28T03:15:51;102048.88;;;5.46;84.27
64886;BME280;51514;52.206;5.114;2024-02-28T03:18:16;102048.69;;;5.49;84.33
64886;BME280;51514;52.206;5.114;2024-02-28T03:20:42;102055.44;;;5.55;84.47
64886;BME280;51514;52.206;5.114;2024-02-28T03:23:07;102048.00;;;5.60;85.00
64886;BME280;51514;52.206;5.114;2024-02-28T03:25:32;102047.78;;;5.63;84.51
64886;BME280;51514;52.206;5.114;2024-02-28T03:27:59;102047.59;;;5.66;84.99
64886;BME280;51514;52.206;5.114;2024-02-28T03:30:25;102044.44;;;5.73;84.83
64886;BME280;51514;52.206;5.114;2024-02-28T03:32:50;102044.91;;;5.80;84.73
64886;BME280;51514;52.206;5.114;2024-02-28T03:35:15;102049.00;;;5.85;85.42
64886;BME280;51514;52.206;5.114;2024-02-28T03:37:41;102044.91;;;5.94;84.79
64886;BME280;51514;52.206;5.114;2024-02-28T03:40:06;102037.34;;;6.01;84.70
64886;BME280;51514;52.206;5.114;2024-02-28T03:42:32;102037.88;;;6.06;84.68
64886;BME280;51514;52.206;5.114;2024-02-28T03:44:57;102037.50;;;6.12;84.58
64886;BME280;51514;52.206;5.114;2024-02-28T03:47:23;102046.84;;;6.19;84.81
64886;BME280;51514;52.206;5.114;2024-02-28T03:49:49;102042.13;;;6.22;84.96
64886;BME280;51514;52.206;5.114;2024-02-28T03:52:15;102053.53;;;6.26;85.22
64886;BME280;51514;52.206;5.114;2024-02-28T03:54:42;102047.06;;;6.29;85.45
64886;BME280;51514;52.206;5.114;2024-02-28T03:57:08;102038.84;;;6.32;85.53
64886;BME280;51514;52.206;5.114;2024-02-28T03:59:34;102048.41;;;6.36;85.37
64886;BME280;51514;52.206;5.114;2024-02-28T04:01:59;102044.66;;;6.38;85.30
64886;BME280;51514;52.206;5.114;2024-02-28T04:04:24;102048.84;;;6.42;84.84
64886;BME280;51514;52.206;5.114;2024-02-28T04:06:50;102047.78;;;6.45;85.30
64886;BME280;51514;52.206;5.114;2024-02-28T04:09:15;102050.16;;;6.49;85.20
64886;BME280;51514;52.206;5.114;2024-02-28T04:11:40;102050.59;;;6.56;84.70
64886;BME280;51514;52.206;5.114;2024-02-28T04:14:08;102052.09;;;6.60;84.33
64886;BME280;51514;52.206;5.114;2024-02-28T04:16:33;102058.97;;;6.64;84.57
64886;BME280;51514;52.206;5.114;2024-02-28T04:18:58;102059.66;;;6.68;85.08
64886;BME280;51514;52.206;5.114;2024-02-28T04:21:24;102057.59;;;6.71;84.57
64886;BME280;51514;52.206;5.114;2024-02-28T04:23:49;102060.94;;;6.75;84.16
64886;BME280;51514;52.206;5.114;2024-02-28T04:26:15;102059.00;;;6.77;84.52
64886;BME280;51514;52.206;5.114;2024-02-28T04:28:42;102061.78;;;6.75;84.68
64886;BME280;51514;52.206;5.114;2024-02-28T04:31:07;102068.44;;;6.82;84.53
64886;BME280;51514;52.206;5.114;2024-02-28T04:33:34;102062.22;;;6.82;84.36
64886;BME280;51514;52.206;5.114;2024-02-28T04:35:59;102062.13;;;6.83;83.92
64886;BME280;51514;52.206;5.114;2024-02-28T04:38:25;102068.25;;;6.85;84.30
64886;BME280;51514;52.206;5.114;2024-02-28T04:40:50;102066.53;;;6.84;83.89
64886;BME280;51514;52.206;5.114;2024-02-28T04:43:16;102075.31;;;6.86;84.52
64886;BME280;51514;52.206;5.114;2024-02-28T04:45:41;102083.16;;;6.89;84.32
64886;BME280;51514;52.206;5.114;2024-02-28T04:48:06;102085.75;;;6.91;83.99
64886;BME280;51514;52.206;5.114;2024-02-28T04:50:32;102085.50;;;6.94;83.94
64886;BME280;51514;52.206;5.114;2024-02-28T04:52:57;102086.94;;;7.00;83.84
64886;BME280;51514;52.206;5.114;2024-02-28T04:55:23;102085.13;;;7.00;83.34
64886;BME280;51514;52.206;5.114;2024-02-28T04:57:48;102080.38;;;7.04;84.18
64886;BME280;51514;52.206;5.114;2024-02-28T05:00:13;102081.13;;;7.06;83.15
64886;BME280;51514;52.206;5.114;2024-02-28T05:02:39;102072.13;;;7.07;83.68
64886;BME280;51514;52.206;5.114;2024-02-28T05:05:05;102081.88;;;7.08;84.11
64886;BME280;51514;52.206;5.114;2024-02-28T05:07:30;102082.66;;;7.10;83.01
64886;BME280;51514;52.206;5.114;2024-02-28T05:09:55;102086.19;;;7.10;83.49
64886;BME280;51514;52.206;5.114;2024-02-28T05:12:21;102079.00;;;7.11;83.16
64886;BME280;51514;52.206;5.114;2024-02-28T05:14:46;102086.28;;;7.09;83.28
64886;BME280;51514;52.206;5.114;2024-02-28T05:17:12;102081.78;;;7.09;83.13
64886;BME280;51514;52.206;5.114;2024-02-28T05:19:38;102080.72;;;7.12;83.29
64886;BME280;51514;52.206;5.114;2024-02-28T05:22:04;102088.00;;;7.10;83.72
64886;BME280;51514;52.206;5.114;2024-02-28T05:24:29;102080.72;;;7.12;83.90
64886;BME280;51514;52.206;5.114;2024-02-28T05:26:55;102077.94;;;7.13;83.28
64886;BME280;51514;52.206;5.114;2024-02-28T05:29:20;102078.81;;;7.14;83.82
64886;BME280;51514;52.206;5.114;2024-02-28T05:31:45;102076.84;;;7.16;83.64
64886;BME280;51514;52.206;5.114;2024-02-28T05:34:11;102079.44;;;7.17;83.45
64886;BME280;51514;52.206;5.114;2024-02-28T05:36:36;102082.88;;;7.19;83.62
64886;BME280;51514;52.206;5.114;2024-02-28T05:39:02;102082.66;;;7.22;83.43
64886;BME280;51514;52.206;5.114;2024-02-28T05:41:30;102074.72;;;7.21;84.09
64886;BME280;51514;52.206;5.114;2024-02-28T05:43:56;102075.47;;;7.23;83.55
64886;BME280;51514;52.206;5.114;2024-02-28T05:46:21;102081.56;;;7.25;83.83
64886;BME280;51514;52.206;5.114;2024-02-28T05:48:47;102083.09;;;7.29;83.44
64886;BME280;51514;52.206;5.114;2024-02-28T05:51:13;102091.22;;;7.27;83.87
64886;BME280;51514;52.206;5.114;2024-02-28T05:53:39;102078.56;;;7.29;83.79
64886;BME280;51514;52.206;5.114;2024-02-28T05:56:06;102082.88;;;7.32;83.88
64886;BME280;51514;52.206;5.114;2024-02-28T05:58:43;102078.56;;;7.29;84.06
64886;BME280;51514;52.206;5.114;2024-02-28T06:01:09;102083.50;;;7.36;83.88
64886;BME280;51514;52.206;5.114;2024-02-28T06:03:35;102089.63;;;7.38;83.92
64886;BME280;51514;52.206;5.114;2024-02-28T06:06:01;102078.56;;;7.42;84.11
64886;BME280;51514;52.206;5.114;2024-02-28T06:08:30;102081.25;;;7.42;84.12
64886;BME280;51514;52.206;5.114;2024-02-28T06:10:56;102085.66;;;7.43;84.40
64886;BME280;51514;52.206;5.114;2024-02-28T06:13:21;102087.16;;;7.47;84.43
64886;BME280;51514;52.206;5.114;2024-02-28T06:15:46;102088.97;;;7.47;84.51
64886;BME280;51514;52.206;5.114;2024-02-28T06:18:12;102092.31;;;7.50;84.49
64886;BME280;51514;52.206;5.114;2024-02-28T06:20:37;102086.94;;;7.50;85.08
64886;BME280;51514;52.206;5.114;2024-02-28T06:23:04;102082.22;;;7.54;84.80
64886;BME280;51514;52.206;5.114;2024-02-28T06:25:29;102090.28;;;7.54;84.49
64886;BME280;51514;52.206;5.114;2024-02-28T06:27:55;102090.16;;;7.55;84.48
64886;BME280;51514;52.206;5.114;2024-02-28T06:30:20;102091.75;;;7.58;84.33
64886;BME280;51514;52.206;5.114;2024-02-28T06:32:46;102092.28;;;7.63;84.37
64886;BME280;51514;52.206;5.114;2024-02-28T06:35:11;102094.88;;;7.64;83.78
64886;BME280;51514;52.206;5.114;2024-02-28T06:37:36;102102.38;;;7.59;84.56
64886;BME280;51514;52.206;5.114;2024-02-28T06:40:05;102119.59;;;7.57;84.72
64886;BME280;51514;52.206;5.114;2024-02-28T06:42:31;102115.69;;;7.61;84.74
64886;BME280;51514;52.206;5.114;2024-02-28T06:44:56;102124.31;;;7.66;84.95
64886;BME280;51514;52.206;5.114;2024-02-28T06:47:21;102126.97;;;7.66;85.25
64886;BME280;51514;52.206;5.114;2024-02-28T06:49:47;102132.25;;;7.67;85.02
64886;BME280;51514;52.206;5.114;2024-02-28T06:52:13;102123.44;;;7.65;84.64
64886;BME280;51514;52.206;5.114;2024-02-28T06:54:39;102131.50;;;7.65;84.68
64886;BME280;51514;52.206;5.114;2024-02-28T06:57:04;102139.53;;;7.65;85.10
64886;BME280;51514;52.206;5.114;2024-02-28T06:59:29;102136.88;;;7.65;85.84
64886;BME280;51514;52.206;5.114;2024-02-28T07:01:55;102128.81;;;7.65;85.42
64886;BME280;51514;52.206;5.114;2024-02-28T07:04:20;102135.34;;;7.61;85.75
64886;BME280;51514;52.206;5.114;2024-02-28T07:06:45;102136.09;;;7.51;86.46
64886;BME280;51514;52.206;5.114;2024-02-28T07:09:11;102147.91;;;7.48;86.70
64886;BME280;51514;52.206;5.114;2024-02-28T07:11:37;102145.22;;;7.48;86.65
64886;BME280;51514;52.206;5.114;2024-02-28T07:14:03;102145.13;;;7.50;86.87
64886;BME280;51514;52.206;5.114;2024-02-28T07:16:29;102139.66;;;7.51;86.57
64886;BME280;51514;52.206;5.114;2024-02-28T07:18:54;102143.94;;;7.54;86.49
64886;BME280;51514;52.206;5.114;2024-02-28T07:21:20;102140.41;;;7.53;87.17
64886;BME280;51514;52.206;5.114;2024-02-28T07:23:45;102141.25;;;7.54;87.27
64886;BME280;51514;52.206;5.114;2024-02-28T07:26:15;102136.09;;;7.51;88.30
64886;BME280;51514;52.206;5.114;2024-02-28T07:28:40;102140.81;;;7.47;88.27
64886;BME280;51514;52.206;5.114;2024-02-28T07:31:06;102145.88;;;7.52;88.00
64886;BME280;51514;52.206;5.114;2024-02-28T07:33:31;102155.84;;;7.50;88.77
64886;BME280;51514;52.206;5.114;2024-02-28T07:35:56;102162.94;;;7.51;88.59
64886;BME280;51514;52.206;5.114;2024-02-28T07:38:26;102162.72;;;7.54;88.42
64886;BME280;51514;52.206;5.114;2024-02-28T07:40:52;102172.59;;;7.53;88.87
64886;BME280;51514;52.206;5.114;2024-02-28T07:43:18;102170.88;;;7.52;89.30
64886;BME280;51514;52.206;5.114;2024-02-28T07:45:43;102168.97;;;7.54;89.18
64886;BME280;51514;52.206;5.114;2024-02-28T07:48:08;102166.28;;;7.54;89.22
64886;BME280;51514;52.206;5.114;2024-02-28T07:50:34;102172.16;;;7.59;89.53
64886;BME280;51514;52.206;5.114;2024-02-28T07:52:59;102184.53;;;7.62;89.36
64886;BME280;51514;52.206;5.114;2024-02-28T07:55:25;102182.59;;;7.64;89.59
64886;BME280;51514;52.206;5.114;2024-02-28T07:57:51;102177.13;;;7.65;89.55
64886;BME280;51514;52.206;5.114;2024-02-28T08:00:17;102181.53;;;7.66;89.70
64886;BME280;51514;52.206;5.114;2024-02-28T08:02:44;102176.03;;;7.68;90.42
64886;BME280;51514;52.206;5.114;2024-02-28T08:05:09;102185.19;;;7.78;90.19
64886;BME280;51514;52.206;5.114;2024-02-28T08:07:35;102184.72;;;7.84;90.19
64886;BME280;51514;52.206;5.114;2024-02-28T08:10:01;102195.16;;;7.89;90.05
64886;BME280;51514;52.206;5.114;2024-02-28T08:12:26;102198.16;;;7.97;89.81
64886;BME280;51514;52.206;5.114;2024-02-28T08:14:51;102195.78;;;8.05;90.04
64886;BME280;51514;52.206;5.114;2024-02-28T08:17:17;102199.97;;;8.09;89.42
64886;BME280;51514;52.206;5.114;2024-02-28T08:19:42;102205.00;;;8.14;89.81
64886;BME280;51514;52.206;5.114;2024-02-28T08:22:07;102199.22;;;8.20;89.48
64886;BME280;51514;52.206;5.114;2024-02-28T08:24:33;102200.78;;;8.22;89.08
64886;BME280;51514;52.206;5.114;2024-02-28T08:26:58;102208.44;;;8.28;89.36
64886;BME280;51514;52.206;5.114;2024-02-28T08:29:23;102213.38;;;8.34;88.70
64886;BME280;51514;52.206;5.114;2024-02-28T08:31:49;102214.03;;;8.38;89.51
64886;BME280;51514;52.206;5.114;2024-02-28T08:34:14;102202.00;;;8.44;88.58
64886;BME280;51514;52.206;5.114;2024-02-28T08:36:41;102211.75;;;8.45;89.06
64886;BME280;51514;52.206;5.114;2024-02-28T08:39:06;102213.25;;;8.49;88.81
64886;BME280;51514;52.206;5.114;2024-02-28T08:41:34;102221.09;;;8.52;88.69
64886;BME280;51514;52.206;5.114;2024-02-28T08:44:00;102219.88;;;8.56;89.01
64886;BME280;51514;52.206;5.114;2024-02-28T08:46:25;102219.66;;;8.59;88.49
64886;BME280;51514;52.206;5.114;2024-02-28T08:48:50;102223.00;;;8.62;89.09
64886;BME280;51514;52.206;5.114;2024-02-28T08:51:16;102227.06;;;8.68;89.21
64886;BME280;51514;52.206;5.114;2024-02-28T08:53:41;102222.97;;;8.75;88.54
64886;BME280;51514;52.206;5.114;2024-02-28T08:56:06;102216.91;;;8.84;88.23
64886;BME280;51514;52.206;5.114;2024-02-28T08:58:32;102225.72;;;8.86;88.17
64886;BME280;51514;52.206;5.114;2024-02-28T09:00:57;102213.28;;;8.96;88.16
64886;BME280;51514;52.206;5.114;2024-02-28T09:03:23;102209.69;;;9.08;87.60
64886;BME280;51514;52.206;5.114;2024-02-28T09:05:48;102213.13;;;9.22;87.66
64886;BME280;51514;52.206;5.114;2024-02-28T09:08:14;102215.66;;;9.36;85.37
64886;BME280;51514;52.206;5.114;2024-02-28T09:10:39;102208.53;;;9.35;85.46
64886;BME280;51514;52.206;5.114;2024-02-28T09:13:05;102195.34;;;9.43;85.49
64886;BME280;51514;52.206;5.114;2024-02-28T09:15:32;102196.97;;;9.57;84.53
64886;BME280;51514;52.206;5.114;2024-02-28T09:17:57;102194.66;;;9.63;83.43
64886;BME280;51514;52.206;5.114;2024-02-28T09:20:22;102202.63;;;9.65;83.45
64886;BME280;51514;52.206;5.114;2024-02-28T09:22:48;102196.38;;;9.75;82.50
64886;BME280;51514;52.206;5.114;2024-02-28T09:25:13;102201.31;;;9.81;82.40
64886;BME280;51514;52.206;5.114;2024-02-28T09:27:40;102206.22;;;9.87;81.74
64886;BME280;51514;52.206;5.114;2024-02-28T09:30:06;102206.09;;;9.89;82.77
64886;BME280;51514;52.206;5.114;2024-02-28T09:32:32;102201.69;;;9.99;82.37
64886;BME280;51514;52.206;5.114;2024-02-28T09:34:58;102203.06;;;10.05;83.20
64886;BME280;51514;52.206;5.114;2024-02-28T09:37:23;102203.41;;;10.11;83.07
64886;BME280;51514;52.206;5.114;2024-02-28T09:39:50;102209.66;;;10.12;82.54
64886;BME280;51514;52.206;5.114;2024-02-28T09:42:15;102214.06;;;10.13;81.74
64886;BME280;51514;52.206;5.114;2024-02-28T09:44:42;102218.47;;;10.03;81.48
64886;BME280;51514;52.206;5.114;2024-02-28T09:47:08;102213.31;;;10.00;81.86
64886;BME280;51514;52.206;5.114;2024-02-28T09:49:34;102225.19;;;9.97;80.88
64886;BME280;51514;52.206;5.114;2024-02-28T09:52:03;102225.81;;;9.89;81.45
64886;BME280;51514;52.206;5.114;2024-02-28T09:54:28;102229.59;;;9.87;81.12
64886;BME280;51514;52.206;5.114;2024-02-28T09:56:55;102231.91;;;9.80;81.20
64886;BME280;51514;52.206;5.114;2024-02-28T09:59:20;102235.59;;;9.79;81.26
64886;BME280;51514;52.206;5.114;2024-02-28T10:01:56;102235.34;;;9.71;81.33
64886;BME280;51514;52.206;5.114;2024-02-28T10:04:24;102229.47;;;9.77;81.42
64886;BME280;51514;52.206;5.114;2024-02-28T10:06:50;102222.88;;;9.81;81.71
64886;BME280;51514;52.206;5.114;2024-02-28T10:09:16;102219.91;;;9.84;81.68
64886;BME280;51514;52.206;5.114;2024-02-28T10:11:41;102209.75;;;9.88;81.68
64886;BME280;51514;52.206;5.114;2024-02-28T10:14:09;102207.56;;;9.93;80.36
64886;BME280;51514;52.206;5.114;2024-02-28T10:16:34;102208.78;;;10.00;80.88
64886;BME280;51514;52.206;5.114;2024-02-28T10:19:00;102216.19;;;10.20;80.90
64886;BME280;51514;52.206;5.114;2024-02-28T10:21:25;102210.63;;;10.55;79.45
64886;BME280;51514;52.206;5.114;2024-02-28T10:23:51;102203.47;;;10.77;79.22
64886;BME280;51514;52.206;5.114;2024-02-28T10:26:17;102204.34;;;11.09;79.29
64886;BME280;51514;52.206;5.114;2024-02-28T10:28:42;102212.75;;;11.48;77.73
64886;BME280;51514;52.206;5.114;2024-02-28T10:31:09;102198.53;;;11.66;76.73
64886;BME280;51514;52.206;5.114;2024-02-28T10:33:35;102201.94;;;11.48;76.01
64886;BME280;51514;52.206;5.114;2024-02-28T10:36:04;102205.00;;;11.75;75.82
64886;BME280;51514;52.206;5.114;2024-02-28T10:38:31;102202.97;;;11.88;74.84
64886;BME280;51514;52.206;5.114;2024-02-28T10:40:59;102210.09;;;11.89;72.37
64886;BME280;51514;52.206;5.114;2024-02-28T10:43:30;102206.31;;;11.81;73.02
64886;BME280;51514;52.206;5.114;2024-02-28T10:45:57;102204.25;;;11.73;74.00
64886;BME280;51514;52.206;5.114;2024-02-28T10:48:25;102202.78;;;11.69;74.37
64886;BME280;51514;52.206;5.114;2024-02-28T10:50:50;102204.38;;;11.71;74.82
64886;BME280;51514;52.206;5.114;2024-02-28T10:53:20;102205.19;;;11.62;74.38
64886;BME280;51514;52.206;5.114;2024-02-28T10:55:48;102198.66;;;11.65;75.38
64886;BME280;51514;52.206;5.114;2024-02-28T10:58:14;102210.41;;;11.75;75.17
64886;BME280;51514;52.206;5.114;2024-02-28T11:00:41;102203.91;;;11.78;74.85
64886;BME280;51514;52.206;5.114;2024-02-28T11:03:09;102201.56;;;11.94;73.76
64886;BME280;51514;52.206;5.114;2024-02-28T11:05:40;102206.09;;;11.93;74.14
64886;BME280;51514;52.206;5.114;2024-02-28T11:08:10;102213.25;;;12.04;74.14
64886;BME280;51514;52.206;5.114;2024-02-28T11:10:40;102204.28;;;12.03;74.05
64886;BME280;51514;52.206;5.114;2024-02-28T11:13:07;102212.75;;;12.10;74.20
64886;BME280;51514;52.206;5.114;2024-02-28T11:15:33;102204.94;;;12.17;73.52
64886;BME280;51514;52.206;5.114;2024-02-28T11:18:08;102198.97;;;11.92;74.03
64886;BME280;51514;52.206;5.114;2024-02-28T11:20:35;102205.63;;;12.09;73.55
64886;BME280;51514;52.206;5.114;2024-02-28T11:23:00;102195.66;;;12.10;73.01
64886;BME280;51514;52.206;5.114;2024-02-28T11:25:26;102193.91;;;11.99;74.01
64886;BME280;51514;52.206;5.114;2024-02-28T11:27:51;102193.44;;;11.94;74.77
64886;BME280;51514;52.206;5.114;2024-02-28T11:30:16;102199.69;;;11.94;75.34
64886;BME280;51514;52.206;5.114;2024-02-28T11:32:42;102192.41;;;11.85;75.60
64886;BME280;51514;52.206;5.114;2024-02-28T11:35:09;102195.53;;;11.90;75.39
64886;BME280;51514;52.206;5.114;2024-02-28T11:37:35;102189.88;;;11.93;75.00
64886;BME280;51514;52.206;5.114;2024-02-28T11:40:00;102186.44;;;11.91;75.58
64886;BME280;51514;52.206;5.114;2024-02-28T11:42:25;102183.66;;;12.02;75.37
64886;BME280;51514;52.206;5.114;2024-02-28T11:44:54;102178.63;;;11.88;76.54
64886;BME280;51514;52.206;5.114;2024-02-28T11:47:22;102177.56;;;12.00;75.44
64886;BME280;51514;52.206;5.114;2024-02-28T11:49:47;102166.09;;;12.18;75.50
64886;BME280;51514;52.206;5.114;2024-02-28T11:52:14;102166.81;;;12.20;75.16
64886;BME280;51514;52.206;5.114;2024-02-28T11:54:39;102162.50;;;12.07;74.27
64886;BME280;51514;52.206;5.114;2024-02-28T11:57:07;102171.75;;;12.15;73.46
64886;BME280;51514;52.206;5.114;2024-02-28T11:59:32;102169.94;;;12.25;74.04
64886;BME280;51514;52.206;5.114;2024-02-28T12:01:58;102170.44;;;12.39;74.24
64886;BME280;51514;52.206;5.114;2024-02-28T12:04:24;102173.03;;;12.51;73.31
64886;BME280;51514;52.206;5.114;2024-02-28T12:06:50;102162.78;;;12.54;73.77
64886;BME280;51514;52.206;5.114;2024-02-28T12:09:16;102165.06;;;12.59;73.41
64886;BME280;51514;52.206;5.114;2024-02-28T12:11:44;102163.47;;;12.56;73.82
64886;BME280;51514;52.206;5.114;2024-02-28T12:14:10;102165.31;;;12.46;73.37
64886;BME280;51514;52.206;5.114;2024-02-28T12:16:39;102171.03;;;12.43;73.95
64886;BME280;51514;52.206;5.114;2024-02-28T12:19:09;102169.41;;;12.31;73.26
64886;BME280;51514;52.206;5.114;2024-02-28T12:21:36;102167.84;;;12.38;74.06
64886;BME280;51514;52.206;5.114;2024-02-28T12:24:01;102164.63;;;12.14;73.88
64886;BME280;51514;52.206;5.114;2024-02-28T12:26:27;102157.72;;;12.21;72.03
64886;BME280;51514;52.206;5.114;2024-02-28T12:28:52;102163.69;;;12.24;72.41
64886;BME280;51514;52.206;5.114;2024-02-28T12:31:17;102155.69;;;12.23;73.53
64886;BME280;51514;52.206;5.114;2024-02-28T12:33:44;102155.88;;;12.31;73.48
64886;BME280;51514;52.206;5.114;2024-02-28T12:36:09;102150.47;;;12.31;73.27
64886;BME280;51514;52.206;5.114;2024-02-28T12:38:35;102144.78;;;12.34;73.11
64886;BME280;51514;52.206;5.114;2024-02-28T12:41:01;102141.38;;;12.32;72.61
64886;BME280;51514;52.206;5.114;2024-02-28T12:43:27;102150.19;;;12.34;73.88
64886;BME280;51514;52.206;5.114;2024-02-28T12:45:53;102140.53;;;12.41;74.21
64886;BME280;51514;52.206;5.114;2024-02-28T12:48:18;102144.97;;;12.52;73.68
64886;BME280;51514;52.206;5.114;2024-02-28T12:50:44;102141.94;;;12.45;73.40